Time,TemperatureF,DewpointF,PressureIn,WindDirection,WindDirectionDegrees,WindSpeedMPH,WindSpeedGustMPH,Humidity,HourlyPrecipIn,Conditions,Clouds,dailyrainin,SoftwareType,DateUTC
2013-11-16 00:30:00,26.0,23.0,30.05,ENE,75,0.0,0.0,87,0.00,,,0.00,,2013-11-16 05:30:00,
2013-11-16 00:53:00,26.0,23.0,30.05,ENE,75,0.0,0.0,87,0.00,,,0.00,,2013-11-16 05:53:00,
2013-11-16 01:02:00,26.0,23.0,30.05,ENE,75,0.0,0.0,87,0.00,,,0.00,,2013-11-16 06:02:00,
2013-11-16 01:13:00,26.0,23.0,30.05,ENE,75,0.0,0.0,87,0.00,,,0.00,,2013-11-16 06:13:00,
2013-11-16 01:22:00,26.0,23.0,30.05,ENE,75,0.0,0.0,87,0.00,,,0.00,,2013-11-16 06:22:00,
2013-11-16 02:42:00,26.0,23.0,30.05,SE,130,0.0,2.0,88,0.00,,,0.00,,2013-11-16 07:42:00,
2013-11-16 02:52:00,26.0,23.0,30.05,SE,130,0.0,2.0,88,0.00,,,0.00,,2013-11-16 07:52:00,
2013-11-16 03:22:00,28.0,25.0,30.06,SE,131,0.0,0.0,87,0.00,,,0.00,,2013-11-16 08:22:00,
2013-11-16 03:32:00,28.0,25.0,30.06,SE,131,0.0,0.0,87,0.00,,,0.00,,2013-11-16 08:32:00,
2013-11-16 03:42:00,28.0,25.0,30.06,SE,131,0.0,0.0,87,0.00,,,0.00,,2013-11-16 08:42:00,
2013-11-16 03:52:00,28.0,25.0,30.06,SE,131,0.0,0.0,87,0.00,,,0.00,,2013-11-16 08:52:00,
2013-11-16 04:02:00,28.0,25.0,30.06,SE,131,0.0,0.0,87,0.00,,,0.00,,2013-11-16 09:02:00,
2013-11-16 04:22:00,29.0,25.0,30.09,SE,134,0.0,0.0,86,0.00,,,0.00,,2013-11-16 09:22:00,
2013-11-16 04:33:00,29.0,25.0,30.09,SE,134,0.0,0.0,86,0.00,,,0.00,,2013-11-16 09:33:00,
2013-11-16 04:53:00,29.0,25.0,30.10,SSE,150,0.0,0.0,86,0.00,,,0.00,,2013-11-16 09:53:00,
2013-11-16 05:03:00,29.0,25.0,30.10,SSE,150,0.0,0.0,86,0.00,,,0.00,,2013-11-16 10:03:00,
2013-11-16 05:23:00,29.0,25.0,30.11,SSE,150,0.0,0.0,86,0.00,,,0.00,,2013-11-16 10:23:00,
2013-11-16 05:33:00,29.0,25.0,30.11,SSE,150,0.0,0.0,86,0.00,,,0.00,,2013-11-16 10:33:00,
2013-11-16 05:52:00,28.0,24.0,30.12,SSE,148,0.0,0.0,86,0.00,,,0.00,,2013-11-16 10:52:00,
2013-11-16 06:12:00,28.0,24.0,30.13,SSE,150,0.0,0.0,86,0.00,,,0.00,,2013-11-16 11:12:00,
2013-11-16 06:22:00,28.0,24.0,30.13,SSE,150,0.0,0.0,86,0.00,,,0.00,,2013-11-16 11:22:00,
2013-11-16 06:32:00,28.0,24.0,30.13,SSE,150,0.0,0.0,86,0.00,,,0.00,,2013-11-16 11:32:00,
2013-11-16 07:30:00,29.0,25.0,30.15,SSE,150,0.0,0.0,86,0.00,,,0.00,,2013-11-16 12:30:00,
2013-11-16 07:52:00,29.0,25.0,30.15,SSE,150,0.0,0.0,86,0.00,,,0.00,,2013-11-16 12:52:00,
2013-11-16 08:11:00,29.0,25.0,30.15,SSE,150,0.0,0.0,86,0.00,,,0.00,,2013-11-16 13:11:00,
2013-11-16 08:22:00,29.0,25.0,30.15,SSE,150,0.0,0.0,86,0.00,,,0.00,,2013-11-16 13:22:00,
2013-11-16 14:30:00,54.0,20.0,30.12,East,82,0.0,0.0,26,0.00,,,0.00,,2013-11-16 19:30:00,
2013-11-16 14:53:00,54.0,20.0,30.12,East,82,0.0,0.0,26,0.00,,,0.00,,2013-11-16 19:53:00,
2013-11-16 15:02:00,54.0,20.0,30.12,East,82,0.0,0.0,26,0.00,,,0.00,,2013-11-16 20:02:00,
2013-11-16 15:12:00,54.0,20.0,30.12,East,82,0.0,0.0,26,0.00,,,0.00,,2013-11-16 20:12:00,
2013-11-16 15:22:00,54.0,20.0,30.12,East,82,0.0,0.0,26,0.00,,,0.00,,2013-11-16 20:22:00,
2013-11-16 17:42:00,39.0,25.0,30.17,East,89,0.0,0.0,57,0.00,,,0.00,,2013-11-16 22:42:00,
2013-11-16 17:53:00,39.0,25.0,30.17,East,89,0.0,0.0,57,0.00,,,0.00,,2013-11-16 22:53:00,
2013-11-16 18:03:00,39.0,25.0,30.17,East,89,0.0,0.0,57,0.00,,,0.00,,2013-11-16 23:03:00,
2013-11-16 18:13:00,39.0,25.0,30.17,East,89,0.0,0.0,57,0.00,,,0.00,,2013-11-16 23:13:00,
2013-11-16 21:42:00,29.0,23.0,30.20,East,80,0.0,0.0,79,0.00,,,0.00,,2013-11-17 02:42:00,
2013-11-16 21:52:00,29.0,23.0,30.20,East,80,0.0,0.0,79,0.00,,,0.00,,2013-11-17 02:52:00,
2013-11-16 22:02:00,29.0,23.0,30.20,East,80,0.0,0.0,79,0.00,,,0.00,,2013-11-17 03:02:00,
2013-11-16 23:03:00,-999.0,-99.9,30.20,East,86,0.0,0.0,-999,-99.99,,,-99.99,,2013-11-17 04:03:00,
2013-11-16 23:14:00,27.0,22.0,30.20,East,86,0.0,0.0,82,0.00,,,0.00,,2013-11-17 04:14:00,
2013-11-16 23:24:00,27.0,22.0,30.20,East,86,0.0,0.0,82,0.00,,,0.00,,2013-11-17 04:24:00,
2013-11-16 23:35:00,27.0,22.0,30.20,East,86,0.0,0.0,82,0.00,,,0.00,,2013-11-17 04:35:00,
2013-11-16 23:53:00,27.0,23.0,30.20,East,89,0.0,0.0,84,0.00,,,0.00,,2013-11-17 04:53:00,